sensor_id;sensor_type;location;lat;lon;timestamp;pressure;altitude;pressure_sealevel;temperature
71960;BMP280;59832;51.146;14.024;2022-09-09T00:06:52;98084.38;;;13.61
71960;BMP280;59832;51.146;14.024;2022-09-09T00:09:22;98078.16;;;13.55
71960;BMP280;59832;51.146;14.024;2022-09-09T00:11:52;98090.22;;;13.55
71960;BMP280;59832;51.146;14.024;2022-09-09T00:17:00;98089.47;;;13.58
71960;BMP280;59832;51.146;14.024;2022-09-09T00:19:33;98089.13;;;13.59
71960;BMP280;59832;51.146;14.024;2022-09-09T00:22:17;98082.91;;;13.53
71960;BMP280;59832;51.146;14.024;2022-09-09T00:32:38;98083.63;;;13.43
71960;BMP280;59832;51.146;14.024;2022-09-09T00:35:27;98084.69;;;13.35
71960;BMP280;59832;51.146;14.024;2022-09-09T00:37:54;98093.06;;;13.28
71960;BMP280;59832;51.146;14.024;2022-09-09T00:40:24;98089.00;;;13.24
71960;BMP280;59832;51.146;14.024;2022-09-09T00:43:38;98080.63;;;13.20
71960;BMP280;59832;51.146;14.024;2022-09-09T00:48:34;98085.34;;;13.11
71960;BMP280;59832;51.146;14.024;2022-09-09T00:51:08;98086.44;;;13.10
71960;BMP280;59832;51.146;14.024;2022-09-09T00:56:20;98085.63;;;12.99
71960;BMP280;59832;51.146;14.024;2022-09-09T00:58:50;98084.16;;;12.91
71960;BMP280;59832;51.146;14.024;2022-09-09T01:01:22;98083.03;;;12.92
71960;BMP280;59832;51.146;14.024;2022-09-09T01:03:50;98090.31;;;12.86
71960;BMP280;59832;51.146;14.024;2022-09-09T01:06:35;98090.31;;;12.86
71960;BMP280;59832;51.146;14.024;2022-09-09T01:27:41;98090.28;;;12.75
71960;BMP280;59832;51.146;14.024;2022-09-09T01:30:12;98098.22;;;12.63
71960;BMP280;59832;51.146;14.024;2022-09-09T01:35:07;98107.31;;;12.57
71960;BMP280;59832;51.146;14.024;2022-09-09T01:37:36;98096.72;;;12.59
71960;BMP280;59832;51.146;14.024;2022-09-09T01:40:04;98087.22;;;12.56
71960;BMP280;59832;51.146;14.024;2022-09-09T01:42:31;98083.91;;;12.52
71960;BMP280;59832;51.146;14.024;2022-09-09T01:44:57;98090.09;;;12.47
71960;BMP280;59832;51.146;14.024;2022-09-09T01:47:24;98084.97;;;12.47
71960;BMP280;59832;51.146;14.024;2022-09-09T01:49:50;98078.06;;;12.51
71960;BMP280;59832;51.146;14.024;2022-09-09T01:52:17;98079.13;;;12.47
71960;BMP280;59832;51.146;14.024;2022-09-09T01:54:43;98080.63;;;12.51
71960;BMP280;59832;51.146;14.024;2022-09-09T02:02:30;98080.56;;;12.41
71960;BMP280;59832;51.146;14.024;2022-09-09T02:05:03;98074.00;;;12.40
71960;BMP280;59832;51.146;14.024;2022-09-09T02:07:38;98072.50;;;12.39
71960;BMP280;59832;51.146;14.024;2022-09-09T02:10:13;98075.84;;;12.43
71960;BMP280;59832;51.146;14.024;2022-09-09T02:12:43;98082.78;;;12.42
71960;BMP280;59832;51.146;14.024;2022-09-09T02:15:30;98079.44;;;12.38
71960;BMP280;59832;51.146;14.024;2022-09-09T02:17:58;98080.53;;;12.34
71960;BMP280;59832;51.146;14.024;2022-09-09T02:20:27;98075.03;;;12.31
71960;BMP280;59832;51.146;14.024;2022-09-09T02:23:00;98083.75;;;12.30
71960;BMP280;59832;51.146;14.024;2022-09-09T02:25:28;98079.75;;;12.26
71960;BMP280;59832;51.146;14.024;2022-09-09T02:27:55;98083.34;;;12.21
71960;BMP280;59832;51.146;14.024;2022-09-09T02:30:24;98084.81;;;12.22
71960;BMP280;59832;51.146;14.024;2022-09-09T02:32:51;98081.53;;;12.22
71960;BMP280;59832;51.146;14.024;2022-09-09T02:35:22;98084.03;;;12.18
71960;BMP280;59832;51.146;14.024;2022-09-09T02:37:51;98082.56;;;12.17
71960;BMP280;59832;51.146;14.024;2022-09-09T02:40:18;98091.31;;;12.16
71960;BMP280;59832;51.146;14.024;2022-09-09T02:42:45;98083.28;;;12.14
71960;BMP280;59832;51.146;14.024;2022-09-09T02:45:13;98089.13;;;12.18
71960;BMP280;59832;51.146;14.024;2022-09-09T02:48:03;98079.25;;;12.13
71960;BMP280;59832;51.146;14.024;2022-09-09T02:50:33;98083.97;;;12.11
71960;BMP280;59832;51.146;14.024;2022-09-09T02:55:37;98091.97;;;12.10
71960;BMP280;59832;51.146;14.024;2022-09-09T02:58:04;98098.97;;;12.16
71960;BMP280;59832;51.146;14.024;2022-09-09T03:00:33;98091.63;;;12.11
71960;BMP280;59832;51.146;14.024;2022-09-09T03:03:05;98097.84;;;12.14
71960;BMP280;59832;51.146;14.024;2022-09-09T03:05:35;98086.88;;;12.10
71960;BMP280;59832;51.146;14.024;2022-09-09T03:08:02;98090.16;;;12.10
71960;BMP280;59832;51.146;14.024;2022-09-09T03:10:29;98086.53;;;12.08
71960;BMP280;59832;51.146;14.024;2022-09-09T03:12:56;98089.75;;;12.05
71960;BMP280;59832;51.146;14.024;2022-09-09T03:15:22;98091.19;;;12.02
71960;BMP280;59832;51.146;14.024;2022-09-09T03:17:48;98095.94;;;12.00
71960;BMP280;59832;51.146;14.024;2022-09-09T03:20:15;98092.28;;;12.01
71960;BMP280;59832;51.146;14.024;2022-09-09T03:22:41;98089.00;;;12.01
71960;BMP280;59832;51.146;14.024;2022-09-09T03:25:08;98096.34;;;12.06
71960;BMP280;59832;51.146;14.024;2022-09-09T03:27:34;98091.91;;;11.99
71960;BMP280;59832;51.146;14.024;2022-09-09T03:30:01;98091.91;;;11.99
71960;BMP280;59832;51.146;14.024;2022-09-09T03:32:29;98089.00;;;12.01
71960;BMP280;59832;51.146;14.024;2022-09-09T03:34:57;98092.59;;;11.96
71960;BMP280;59832;51.146;14.024;2022-09-09T03:37:23;98092.59;;;11.96
71960;BMP280;59832;51.146;14.024;2022-09-09T03:39:50;98089.00;;;12.01
71960;BMP280;59832;51.146;14.024;2022-09-09T03:42:16;98086.38;;;11.94
71960;BMP280;59832;51.146;14.024;2022-09-09T03:44:46;98096.22;;;11.95
71960;BMP280;59832;51.146;14.024;2022-09-09T03:47:20;98094.00;;;11.90
71960;BMP280;59832;51.146;14.024;2022-09-09T03:49:47;98094.38;;;11.92
71960;BMP280;59832;51.146;14.024;2022-09-09T03:52:14;98091.06;;;11.88
71960;BMP280;59832;51.146;14.024;2022-09-09T03:54:46;98094.75;;;11.91
71960;BMP280;59832;51.146;14.024;2022-09-09T03:57:14;98090.03;;;11.96
71960;BMP280;59832;51.146;14.024;2022-09-09T03:59:43;98090.00;;;11.93
71960;BMP280;59832;51.146;14.024;2022-09-09T04:02:09;98084.16;;;11.89
71960;BMP280;59832;51.146;14.024;2022-09-09T04:04:36;98083.41;;;11.88
71960;BMP280;59832;51.146;14.024;2022-09-09T04:07:02;98080.91;;;11.92
71960;BMP280;59832;51.146;14.024;2022-09-09T04:09:29;98084.53;;;11.91
71960;BMP280;59832;51.146;14.024;2022-09-09T04:11:57;98087.41;;;11.86
71960;BMP280;59832;51.146;14.024;2022-09-09T04:14:23;98098.31;;;11.82
71960;BMP280;59832;51.146;14.024;2022-09-09T04:16:54;98096.09;;;11.81
71960;BMP280;59832;51.146;14.024;2022-09-09T04:19:21;98099.41;;;11.85
71960;BMP280;59832;51.146;14.024;2022-09-09T04:21:48;98102.72;;;11.89
71960;BMP280;59832;51.146;14.024;2022-09-09T04:24:17;98099.06;;;11.87
71960;BMP280;59832;51.146;14.024;2022-09-09T04:26:44;98091.03;;;11.84
71960;BMP280;59832;51.146;14.024;2022-09-09T04:29:11;98096.50;;;11.83
71960;BMP280;59832;51.146;14.024;2022-09-09T04:31:38;98099.09;;;11.90
71960;BMP280;59832;51.146;14.024;2022-09-09T04:34:08;98104.91;;;11.87
71960;BMP280;59832;51.146;14.024;2022-09-09T04:36:35;98098.03;;;11.91
71960;BMP280;59832;51.146;14.024;2022-09-09T04:39:01;98097.97;;;11.88
71960;BMP280;59832;51.146;14.024;2022-09-09T04:41:28;98099.06;;;11.87
71960;BMP280;59832;51.146;14.024;2022-09-09T04:43:54;98100.59;;;11.95
71960;BMP280;59832;51.146;14.024;2022-09-09T04:46:21;98096.59;;;11.94
71960;BMP280;59832;51.146;14.024;2022-09-09T04:48:49;98103.59;;;12.00
71960;BMP280;59832;51.146;14.024;2022-09-09T04:51:15;98101.75;;;12.01
71960;BMP280;59832;51.146;14.024;2022-09-09T04:53:42;98095.94;;;12.04
71960;BMP280;59832;51.146;14.024;2022-09-09T04:56:09;98099.28;;;12.08
71960;BMP280;59832;51.146;14.024;2022-09-09T04:58:36;98101.16;;;12.14
71960;BMP280;59832;51.146;14.024;2022-09-09T05:01:07;98098.25;;;12.16
71960;BMP280;59832;51.146;14.024;2022-09-09T05:03:34;98109.53;;;12.18
71960;BMP280;59832;51.146;14.024;2022-09-09T05:06:04;98112.13;;;12.22
71960;BMP280;59832;51.146;14.024;2022-09-09T05:08:30;98113.97;;;12.25
71960;BMP280;59832;51.146;14.024;2022-09-09T05:10:56;98116.97;;;12.38
71960;BMP280;59832;51.146;14.024;2022-09-09T05:13:24;98116.38;;;12.55
71960;BMP280;59832;51.146;14.024;2022-09-09T05:15:53;98098.97;;;12.67
71960;BMP280;59832;51.146;14.024;2022-09-09T05:18:20;98101.91;;;12.73
71960;BMP280;59832;51.146;14.024;2022-09-09T05:20:48;98107.47;;;12.86
71960;BMP280;59832;51.146;14.024;2022-09-09T05:23:15;98101.66;;;12.96
71960;BMP280;59832;51.146;14.024;2022-09-09T05:25:42;98099.91;;;13.07
71960;BMP280;59832;51.146;14.024;2022-09-09T05:28:09;98106.91;;;13.20
71960;BMP280;59832;51.146;14.024;2022-09-09T05:30:37;98113.47;;;13.25
71960;BMP280;59832;51.146;14.024;2022-09-09T05:33:04;98111.69;;;13.33
71960;BMP280;59832;51.146;14.024;2022-09-09T05:35:32;98119.00;;;13.34
71960;BMP280;59832;51.146;14.024;2022-09-09T05:37:59;98118.66;;;13.36
71960;BMP280;59832;51.146;14.024;2022-09-09T05:40:26;98112.41;;;13.33
71960;BMP280;59832;51.146;14.024;2022-09-09T05:42:53;98119.03;;;13.45
71960;BMP280;59832;51.146;14.024;2022-09-09T05:45:19;98123.06;;;13.56
71960;BMP280;59832;51.146;14.024;2022-09-09T05:47:50;98119.09;;;13.84
71960;BMP280;59832;51.146;14.024;2022-09-09T05:50:18;98128.66;;;14.11
71960;BMP280;59832;51.146;14.024;2022-09-09T05:52:44;98119.50;;;14.17
71960;BMP280;59832;51.146;14.024;2022-09-09T05:55:10;98123.53;;;14.40
71960;BMP280;59832;51.146;14.024;2022-09-09T05:57:37;98125.72;;;14.59
71960;BMP280;59832;51.146;14.024;2022-09-09T06:00:03;98125.31;;;14.71
71960;BMP280;59832;51.146;14.024;2022-09-09T06:02:30;98126.03;;;14.68
71960;BMP280;59832;51.146;14.024;2022-09-09T06:04:57;98132.59;;;14.69
71960;BMP280;59832;51.146;14.024;2022-09-09T06:07:26;98133.69;;;14.68
71960;BMP280;59832;51.146;14.024;2022-09-09T06:09:52;98133.75;;;14.64
71960;BMP280;59832;51.146;14.024;2022-09-09T06:12:19;98126.41;;;14.66
71960;BMP280;59832;51.146;14.024;2022-09-09T06:14:46;98131.88;;;14.83
71960;BMP280;59832;51.146;14.024;2022-09-09T06:17:13;98128.59;;;14.75
71960;BMP280;59832;51.146;14.024;2022-09-09T06:19:39;98142.47;;;14.88
71960;BMP280;59832;51.146;14.024;2022-09-09T06:22:05;98145.34;;;14.97
71960;BMP280;59832;51.146;14.024;2022-09-09T06:24:32;98140.19;;;15.08
71960;BMP280;59832;51.146;14.024;2022-09-09T06:26:59;98137.97;;;15.17
71960;BMP280;59832;51.146;14.024;2022-09-09T06:29:25;98138.25;;;15.33
71960;BMP280;59832;51.146;14.024;2022-09-09T06:31:52;98142.31;;;15.27
71960;BMP280;59832;51.146;14.024;2022-09-09T06:34:19;98151.81;;;15.30
71960;BMP280;59832;51.146;14.024;2022-09-09T06:36:45;98146.84;;;15.67
71960;BMP280;59832;51.146;14.024;2022-09-09T06:39:12;98146.66;;;15.96
71960;BMP280;59832;51.146;14.024;2022-09-09T06:41:40;98143.63;;;16.08
71960;BMP280;59832;51.146;14.024;2022-09-09T06:44:08;98140.69;;;16.06
71960;BMP280;59832;51.146;14.024;2022-09-09T06:46:38;98140.03;;;15.98
71960;BMP280;59832;51.146;14.024;2022-09-09T06:49:06;98143.28;;;16.06
71960;BMP280;59832;51.146;14.024;2022-09-09T06:51:34;98139.50;;;16.21
71960;BMP280;59832;51.146;14.024;2022-09-09T06:54:01;98134.31;;;16.24
71960;BMP280;59832;51.146;14.024;2022-09-09T06:56:46;98140.31;;;16.11
71960;BMP280;59832;51.146;14.024;2022-09-09T06:59:12;98133.72;;;16.13
71960;BMP280;59832;51.146;14.024;2022-09-09T07:01:39;98143.63;;;16.49
71960;BMP280;59832;51.146;14.024;2022-09-09T07:04:10;98132.03;;;16.71
71960;BMP280;59832;51.146;14.024;2022-09-09T07:06:38;98134.81;;;17.17
71960;BMP280;59832;51.146;14.024;2022-09-09T07:09:05;98140.22;;;17.50
71960;BMP280;59832;51.146;14.024;2022-09-09T07:11:33;98137.50;;;17.83
71960;BMP280;59832;51.146;14.024;2022-09-09T07:14:00;98133.97;;;17.97
71960;BMP280;59832;51.146;14.024;2022-09-09T07:16:26;98124.03;;;17.99
71960;BMP280;59832;51.146;14.024;2022-09-09T07:18:57;98131.81;;;18.38
71960;BMP280;59832;51.146;14.024;2022-09-09T07:21:25;98134.47;;;18.55
71960;BMP280;59832;51.146;14.024;2022-09-09T07:23:52;98135.00;;;18.46
71960;BMP280;59832;51.146;14.024;2022-09-09T07:26:21;98140.34;;;18.55
71960;BMP280;59832;51.146;14.024;2022-09-09T07:28:48;98150.28;;;18.73
71960;BMP280;59832;51.146;14.024;2022-09-09T07:31:15;98138.50;;;19.07
71960;BMP280;59832;51.146;14.024;2022-09-09T07:33:43;98142.69;;;19.37
71960;BMP280;59832;51.146;14.024;2022-09-09T07:36:12;98141.22;;;19.52
71960;BMP280;59832;51.146;14.024;2022-09-09T07:38:43;98133.06;;;19.86
71960;BMP280;59832;51.146;14.024;2022-09-09T07:41:15;98135.69;;;19.99
71960;BMP280;59832;51.146;14.024;2022-09-09T07:43:43;98133.69;;;20.19
71960;BMP280;59832;51.146;14.024;2022-09-09T07:46:10;98136.66;;;19.89
71960;BMP280;59832;51.146;14.024;2022-09-09T07:48:38;98125.84;;;19.94
71960;BMP280;59832;51.146;14.024;2022-09-09T07:51:06;98128.66;;;19.99
71960;BMP280;59832;51.146;14.024;2022-09-09T07:53:32;98132.59;;;19.43
71960;BMP280;59832;51.146;14.024;2022-09-09T07:56:09;98136.03;;;19.04
71960;BMP280;59832;51.146;14.024;2022-09-09T07:58:36;98137.13;;;19.23
71960;BMP280;59832;51.146;14.024;2022-09-09T08:01:07;98136.06;;;19.20
71960;BMP280;59832;51.146;14.024;2022-09-09T08:03:34;98142.84;;;19.14
71960;BMP280;59832;51.146;14.024;2022-09-09T08:06:02;98142.84;;;19.14
71960;BMP280;59832;51.146;14.024;2022-09-09T08:08:29;98148.50;;;19.57
71960;BMP280;59832;51.146;14.024;2022-09-09T08:11:03;98146.97;;;20.05
71960;BMP280;59832;51.146;14.024;2022-09-09T08:13:29;98144.09;;;20.44
71960;BMP280;59832;51.146;14.024;2022-09-09T08:16:04;98143.78;;;20.55
71960;BMP280;59832;51.146;14.024;2022-09-09T08:18:31;98150.88;;;21.05
71960;BMP280;59832;51.146;14.024;2022-09-09T08:20:57;98146.22;;;21.12
71960;BMP280;59832;51.146;14.024;2022-09-09T08:23:23;98136.91;;;21.62
71960;BMP280;59832;51.146;14.024;2022-09-09T08:25:50;98134.41;;;21.71
71960;BMP280;59832;51.146;14.024;2022-09-09T08:28:16;98139.63;;;22.23
71960;BMP280;59832;51.146;14.024;2022-09-09T08:30:42;98134.88;;;22.22
71960;BMP280;59832;51.146;14.024;2022-09-09T08:33:09;98132.19;;;22.25
71960;BMP280;59832;51.146;14.024;2022-09-09T08:35:35;98130.03;;;22.11
71960;BMP280;59832;51.146;14.024;2022-09-09T08:38:01;98138.34;;;21.84
71960;BMP280;59832;51.146;14.024;2022-09-09T08:40:34;98141.34;;;21.61
71960;BMP280;59832;51.146;14.024;2022-09-09T08:43:04;98141.84;;;21.34
71960;BMP280;59832;51.146;14.024;2022-09-09T08:45:37;98150.31;;;21.82
71960;BMP280;59832;51.146;14.024;2022-09-09T08:50:53;98153.13;;;22.40
71960;BMP280;59832;51.146;14.024;2022-09-09T08:53:28;98156.72;;;21.90
71960;BMP280;59832;51.146;14.024;2022-09-09T08:55:59;98161.66;;;21.63
71960;BMP280;59832;51.146;14.024;2022-09-09T08:58:28;98166.09;;;20.90
71960;BMP280;59832;51.146;14.024;2022-09-09T09:06:06;98166.78;;;21.28
71960;BMP280;59832;51.146;14.024;2022-09-09T09:08:39;98162.94;;;21.46
71960;BMP280;59832;51.146;14.024;2022-09-09T09:11:09;98156.03;;;21.30
71960;BMP280;59832;51.146;14.024;2022-09-09T09:13:40;98152.25;;;21.44
71960;BMP280;59832;51.146;14.024;2022-09-09T09:19:14;98151.06;;;21.35
71960;BMP280;59832;51.146;14.024;2022-09-09T09:21:42;98159.97;;;21.69
71960;BMP280;59832;51.146;14.024;2022-09-09T09:24:16;98163.44;;;22.09
71960;BMP280;59832;51.146;14.024;2022-09-09T09:26:47;98160.84;;;22.31
71960;BMP280;59832;51.146;14.024;2022-09-09T09:29:17;98159.06;;;22.49
71960;BMP280;59832;51.146;14.024;2022-09-09T09:31:48;98161.44;;;21.91
71960;BMP280;59832;51.146;14.024;2022-09-09T09:34:17;98156.19;;;21.82
71960;BMP280;59832;51.146;14.024;2022-09-09T09:36:45;98153.25;;;21.71
71960;BMP280;59832;51.146;14.024;2022-09-09T09:39:26;98163.69;;;21.08
71960;BMP280;59832;51.146;14.024;2022-09-09T09:42:13;98161.31;;;21.14
71960;BMP280;59832;51.146;14.024;2022-09-09T09:44:42;98160.19;;;20.90
71960;BMP280;59832;51.146;14.024;2022-09-09T09:47:12;98167.44;;;20.82
71960;BMP280;59832;51.146;14.024;2022-09-09T09:49:39;98185.69;;;20.50
71960;BMP280;59832;51.146;14.024;2022-09-09T09:52:17;98180.19;;;20.19
71960;BMP280;59832;51.146;14.024;2022-09-09T09:54:46;98192.03;;;19.88
71960;BMP280;59832;51.146;14.024;2022-09-09T09:57:14;98209.97;;;19.62
71960;BMP280;59832;51.146;14.024;2022-09-09T09:59:41;98226.84;;;18.95
71960;BMP280;59832;51.146;14.024;2022-09-09T10:04:43;98228.63;;;18.13
71960;BMP280;59832;51.146;14.024;2022-09-09T10:07:12;98227.13;;;18.15
71960;BMP280;59832;51.146;14.024;2022-09-09T10:09:39;98221.06;;;18.29
71960;BMP280;59832;51.146;14.024;2022-09-09T10:12:23;98222.91;;;18.28
71960;BMP280;59832;51.146;14.024;2022-09-09T10:17:32;98224.22;;;18.36
71960;BMP280;59832;51.146;14.024;2022-09-09T10:22:34;98211.72;;;18.78
71960;BMP280;59832;51.146;14.024;2022-09-09T10:25:20;98206.25;;;19.12
71960;BMP280;59832;51.146;14.024;2022-09-09T10:30:24;98196.41;;;19.58
71960;BMP280;59832;51.146;14.024;2022-09-09T10:35:38;98196.47;;;20.61
71960;BMP280;59832;51.146;14.024;2022-09-09T10:38:16;98194.38;;;20.56
71960;BMP280;59832;51.146;14.024;2022-09-09T10:41:31;98185.66;;;20.78
71960;BMP280;59832;51.146;14.024;2022-09-09T10:46:10;98192.69;;;21.28
71960;BMP280;59832;51.146;14.024;2022-09-09T10:51:36;98177.03;;;21.32
71960;BMP280;59832;51.146;14.024;2022-09-09T10:56:48;98174.22;;;21.86
71960;BMP280;59832;51.146;14.024;2022-09-09T10:59:19;98181.06;;;22.14
71960;BMP280;59832;51.146;14.024;2022-09-09T11:01:53;98169.66;;;22.12
71960;BMP280;59832;51.146;14.024;2022-09-09T11:04:34;98164.81;;;22.01
71960;BMP280;59832;51.146;14.024;2022-09-09T11:07:05;98158.16;;;22.13
71960;BMP280;59832;51.146;14.024;2022-09-09T11:09:38;98154.59;;;22.50
71960;BMP280;59832;51.146;14.024;2022-09-09T11:12:09;98161.84;;;22.55
71960;BMP280;59832;51.146;14.024;2022-09-09T11:14:55;98172.63;;;22.53
71960;BMP280;59832;51.146;14.024;2022-09-09T11:17:24;98162.66;;;22.83
71960;BMP280;59832;51.146;14.024;2022-09-09T11:19:53;98158.91;;;22.75
71960;BMP280;59832;51.146;14.024;2022-09-09T11:25:01;98151.19;;;22.93
71960;BMP280;59832;51.146;14.024;2022-09-09T11:27:36;98146.88;;;23.08
71960;BMP280;59832;51.146;14.024;2022-09-09T11:30:14;98144.63;;;23.37
71960;BMP280;59832;51.146;14.024;2022-09-09T11:33:06;98150.69;;;23.52
71960;BMP280;59832;51.146;14.024;2022-09-09T11:35:45;98137.72;;;23.52
71960;BMP280;59832;51.146;14.024;2022-09-09T11:38:15;98134.72;;;22.96
71960;BMP280;59832;51.146;14.024;2022-09-09T11:40:42;98144.38;;;22.95
71960;BMP280;59832;51.146;14.024;2022-09-09T11:45:40;98139.59;;;22.45
71960;BMP280;59832;51.146;14.024;2022-09-09T11:48:21;98129.16;;;22.05
71960;BMP280;59832;51.146;14.024;2022-09-09T11:50:57;98135.19;;;21.80
71960;BMP280;59832;51.146;14.024;2022-09-09T11:53:24;98131.88;;;21.46
71960;BMP280;59832;51.146;14.024;2022-09-09T11:56:00;98128.97;;;21.44
71960;BMP280;59832;51.146;14.024;2022-09-09T11:58:27;98132.75;;;21.64
71960;BMP280;59832;51.146;14.024;2022-09-09T12:00:55;98139.69;;;22.11
71960;BMP280;59832;51.146;14.024;2022-09-09T12:03:33;98138.38;;;22.58
71960;BMP280;59832;51.146;14.024;2022-09-09T12:06:24;98140.38;;;23.12
71960;BMP280;59832;51.146;14.024;2022-09-09T12:08:52;98125.25;;;23.29
71960;BMP280;59832;51.146;14.024;2022-09-09T12:11:23;98121.59;;;22.90
71960;BMP280;59832;51.146;14.024;2022-09-09T12:13:54;98126.69;;;22.94
71960;BMP280;59832;51.146;14.024;2022-09-09T12:16:29;98125.53;;;22.64
71960;BMP280;59832;51.146;14.024;2022-09-09T12:19:03;98120.34;;;23.04
71960;BMP280;59832;51.146;14.024;2022-09-09T12:24:20;98101.66;;;22.29
71960;BMP280;59832;51.146;14.024;2022-09-09T12:26:54;98101.19;;;22.00
71960;BMP280;59832;51.146;14.024;2022-09-09T12:36:55;98098.59;;;22.61
71960;BMP280;59832;51.146;14.024;2022-09-09T12:39:29;98090.13;;;22.30
71960;BMP280;59832;51.146;14.024;2022-09-09T12:42:00;98087.56;;;22.39
71960;BMP280;59832;51.146;14.024;2022-09-09T12:44:26;98082.91;;;22.25
71960;BMP280;59832;51.146;14.024;2022-09-09T12:46:56;98081.16;;;22.00
71960;BMP280;59832;51.146;14.024;2022-09-09T12:49:35;98076.31;;;22.03
71960;BMP280;59832;51.146;14.024;2022-09-09T12:52:16;98077.75;;;22.04
71960;BMP280;59832;51.146;14.024;2022-09-09T12:54:46;98080.34;;;22.04
71960;BMP280;59832;51.146;14.024;2022-09-09T12:57:13;98079.78;;;22.09
71960;BMP280;59832;51.146;14.024;2022-09-09T12:59:41;98080.13;;;22.50
71960;BMP280;59832;51.146;14.024;2022-09-09T13:02:26;98071.06;;;22.55
71960;BMP280;59832;51.146;14.024;2022-09-09T13:04:54;98074.09;;;22.63
71960;BMP280;59832;51.146;14.024;2022-09-09T13:07:22;98068.38;;;22.68
71960;BMP280;59832;51.146;14.024;2022-09-09T13:09:48;98064.81;;;22.92
71960;BMP280;59832;51.146;14.024;2022-09-09T13:12:16;98054.03;;;22.94
71960;BMP280;59832;51.146;14.024;2022-09-09T13:14:44;98051.13;;;23.01
71960;BMP280;59832;51.146;14.024;2022-09-09T13:17:17;98055.97;;;22.72
71960;BMP280;59832;51.146;14.024;2022-09-09T13:19:45;98053.03;;;22.51
71960;BMP280;59832;51.146;14.024;2022-09-09T13:22:27;98052.91;;;22.64
71960;BMP280;59832;51.146;14.024;2022-09-09T13:25:01;98051.94;;;22.71
71960;BMP280;59832;51.146;14.024;2022-09-09T13:27:30;98035.81;;;22.76
71960;BMP280;59832;51.146;14.024;2022-09-09T13:29:57;98042.53;;;22.55
71960;BMP280;59832;51.146;14.024;2022-09-09T13:32:24;98040.53;;;22.59
71960;BMP280;59832;51.146;14.024;2022-09-09T13:34:54;98040.09;;;22.70
71960;BMP280;59832;51.146;14.024;2022-09-09T13:37:30;98043.94;;;22.47
71960;BMP280;59832;51.146;14.024;2022-09-09T13:39:58;98033.22;;;22.76
71960;BMP280;59832;51.146;14.024;2022-09-09T13:42:25;98043.59;;;22.76
71960;BMP280;59832;51.146;14.024;2022-09-09T13:44:52;98045.59;;;22.72
71960;BMP280;59832;51.146;14.024;2022-09-09T13:47:20;98038.69;;;22.78
71960;BMP280;59832;51.146;14.024;2022-09-09T13:49:46;98045.28;;;22.70
71960;BMP280;59832;51.146;14.024;2022-09-09T13:52:13;98036.28;;;22.92
71960;BMP280;59832;51.146;14.024;2022-09-09T13:54:40;98038.13;;;22.83
71960;BMP280;59832;51.146;14.024;2022-09-09T13:57:15;98034.75;;;22.64
71960;BMP280;59832;51.146;14.024;2022-09-09T13:59:41;98042.28;;;22.71
71960;BMP280;59832;51.146;14.024;2022-09-09T14:02:27;98040.41;;;22.72
71960;BMP280;59832;51.146;14.024;2022-09-09T14:04:54;98047.00;;;22.54
71960;BMP280;59832;51.146;14.024;2022-09-09T14:07:21;98039.03;;;22.49
71960;BMP280;59832;51.146;14.024;2022-09-09T14:09:48;98035.22;;;22.81
71960;BMP280;59832;51.146;14.024;2022-09-09T14:12:16;98031.88;;;22.62
71960;BMP280;59832;51.146;14.024;2022-09-09T14:14:42;98025.66;;;22.50
71960;BMP280;59832;51.146;14.024;2022-09-09T14:17:09;98024.56;;;22.21
71960;BMP280;59832;51.146;14.024;2022-09-09T14:19:36;98021.19;;;22.11
71960;BMP280;59832;51.146;14.024;2022-09-09T14:22:03;98016.28;;;22.04
71960;BMP280;59832;51.146;14.024;2022-09-09T14:24:29;98017.84;;;22.02
71960;BMP280;59832;51.146;14.024;2022-09-09T14:26:55;98011.56;;;22.12
71960;BMP280;59832;51.146;14.024;2022-09-09T14:29:22;98004.91;;;22.11
71960;BMP280;59832;51.146;14.024;2022-09-09T14:31:48;98004.97;;;22.20
71960;BMP280;59832;51.146;14.024;2022-09-09T14:34:15;98008.84;;;22.15
71960;BMP280;59832;51.146;14.024;2022-09-09T14:36:41;98005.28;;;22.22
71960;BMP280;59832;51.146;14.024;2022-09-09T14:39:07;98007.41;;;22.14
71960;BMP280;59832;51.146;14.024;2022-09-09T14:41:34;98016.66;;;22.24
71960;BMP280;59832;51.146;14.024;2022-09-09T14:44:00;98010.28;;;22.16
71960;BMP280;59832;51.146;14.024;2022-09-09T14:46:26;97998.84;;;22.05
71960;BMP280;59832;51.146;14.024;2022-09-09T14:48:53;97992.81;;;21.98
71960;BMP280;59832;51.146;14.024;2022-09-09T14:51:24;97996.16;;;22.08
71960;BMP280;59832;51.146;14.024;2022-09-09T14:53:58;98000.09;;;22.22
71960;BMP280;59832;51.146;14.024;2022-09-09T14:56:29;97997.78;;;22.24
71960;BMP280;59832;51.146;14.024;2022-09-09T14:58:56;98000.31;;;22.06
71960;BMP280;59832;51.146;14.024;2022-09-09T15:01:23;98001.56;;;22.01
71960;BMP280;59832;51.146;14.024;2022-09-09T15:04:00;98000.59;;;22.08
71960;BMP280;59832;51.146;14.024;2022-09-09T15:06:28;97998.41;;;21.97
71960;BMP280;59832;51.146;14.024;2022-09-09T15:08:57;98000.78;;;21.91
71960;BMP280;59832;51.146;14.024;2022-09-09T15:11:24;98001.00;;;21.97
71960;BMP280;59832;51.146;14.024;2022-09-09T15:13:54;97989.72;;;21.91
71960;BMP280;59832;51.146;14.024;2022-09-09T15:16:21;97990.31;;;21.95
71960;BMP280;59832;51.146;14.024;2022-09-09T15:18:50;97997.78;;;21.93
71960;BMP280;59832;51.146;14.024;2022-09-09T15:21:17;97993.22;;;21.97
71960;BMP280;59832;51.146;14.024;2022-09-09T15:23:45;98007.16;;;21.90
71960;BMP280;59832;51.146;14.024;2022-09-09T15:26:12;98011.31;;;21.88
71960;BMP280;59832;51.146;14.024;2022-09-09T15:28:41;98021.91;;;21.81
71960;BMP280;59832;51.146;14.024;2022-09-09T15:33:36;98000.19;;;21.78
71960;BMP280;59832;51.146;14.024;2022-09-09T15:36:24;97989.59;;;21.42
71960;BMP280;59832;51.146;14.024;2022-09-09T15:38:51;98005.31;;;21.48
71960;BMP280;59832;51.146;14.024;2022-09-09T15:41:18;98008.91;;;21.28
71960;BMP280;59832;51.146;14.024;2022-09-09T15:43:45;98007.16;;;21.25
71960;BMP280;59832;51.146;14.024;2022-09-09T15:46:21;98009.50;;;21.11
71960;BMP280;59832;51.146;14.024;2022-09-09T15:48:57;98019.75;;;21.02
71960;BMP280;59832;51.146;14.024;2022-09-09T15:51:24;98026.41;;;20.65